createdAt,value
2023-04-03T00:01:00.447Z,2.14
2023-04-03T00:03:27.339Z,2.15
2023-04-03T00:05:53.814Z,2.18
2023-04-03T00:08:21.104Z,2.22
2023-04-03T00:10:47.967Z,2.23
2023-04-03T00:13:15.859Z,2.20
2023-04-03T00:15:42.596Z,2.25
2023-04-03T00:18:09.610Z,2.27
2023-04-03T00:20:36.509Z,2.25
2023-04-03T00:23:03.414Z,2.27
2023-04-03T00:25:29.854Z,2.30
2023-04-03T00:27:56.762Z,2.38
2023-04-03T00:30:23.784Z,2.33
2023-04-03T00:32:51.960Z,2.37
2023-04-03T00:35:20.253Z,2.36
2023-04-03T00:37:47.173Z,2.41
2023-04-03T00:40:15.612Z,2.43
2023-04-03T00:42:43.722Z,2.39
2023-04-03T00:45:19.444Z,2.28
2023-04-03T00:47:46.602Z,2.31
2023-04-03T00:50:13.032Z,2.34
2023-04-03T00:52:40.304Z,2.34
2023-04-03T00:55:09.471Z,2.34
2023-04-03T00:57:36.705Z,2.34
2023-04-03T01:00:09.931Z,2.37
2023-04-03T01:02:36.551Z,2.36
2023-04-03T01:05:03.980Z,2.36
2023-04-03T01:07:32.405Z,2.27
2023-04-03T01:10:01.156Z,2.30
2023-04-03T01:12:34.480Z,2.31
2023-04-03T01:15:09.785Z,2.23
2023-04-03T01:17:37.824Z,2.24
2023-04-03T01:20:28.885Z,2.23
2023-04-03T01:23:10.826Z,2.20
2023-04-03T01:25:47.162Z,2.15
2023-04-03T01:28:26.327Z,2.15
2023-04-03T01:31:06.859Z,2.15
2023-04-03T01:33:33.574Z,2.13
2023-04-03T01:36:00.248Z,2.08
2023-04-03T01:38:27.295Z,2.06
2023-04-03T01:40:53.701Z,2.01
2023-04-03T01:43:20.295Z,1.93
2023-04-03T01:45:47.504Z,1.86
2023-04-03T01:48:14.823Z,1.82
2023-04-03T01:50:41.262Z,1.75
2023-04-03T01:53:08.173Z,1.76
2023-04-03T01:55:34.592Z,1.77
2023-04-03T01:58:01.356Z,1.78
2023-04-03T02:00:28.018Z,1.81
2023-04-03T02:02:54.792Z,1.82
2023-04-03T02:05:21.526Z,1.81
2023-04-03T02:07:47.914Z,1.81
2023-04-03T02:10:14.673Z,1.81
2023-04-03T02:12:41.205Z,1.75
2023-04-03T02:15:08.592Z,1.61
2023-04-03T02:17:36.483Z,1.61
2023-04-03T02:20:04.193Z,1.59
2023-04-03T02:22:37.801Z,1.66
2023-04-03T02:25:04.528Z,1.53
2023-04-03T02:27:31.013Z,1.54
2023-04-03T02:29:57.694Z,1.53
2023-04-03T02:32:24.735Z,1.53
2023-04-03T02:34:51.114Z,1.56
2023-04-03T02:37:17.608Z,1.49
2023-04-03T02:39:44.142Z,1.45
2023-04-03T02:42:11.289Z,1.39
2023-04-03T02:44:37.725Z,1.38
2023-04-03T02:47:04.499Z,1.33
2023-04-03T02:49:30.972Z,1.32
2023-04-03T02:51:57.943Z,1.19
2023-04-03T02:54:28.613Z,1.12
2023-04-03T02:56:55.819Z,1.07
2023-04-03T02:59:22.287Z,0.99
2023-04-03T03:01:48.841Z,0.97
2023-04-03T03:04:15.442Z,0.89
2023-04-03T03:06:43.643Z,0.82
2023-04-03T03:09:11.988Z,0.71
2023-04-03T03:11:38.875Z,0.60
2023-04-03T03:14:05.394Z,0.50
2023-04-03T03:16:32.396Z,0.44
2023-04-03T03:18:59.107Z,0.37
2023-04-03T03:21:26.066Z,0.33
2023-04-03T03:23:52.505Z,0.29
2023-04-03T03:26:19.504Z,0.20
2023-04-03T03:28:45.944Z,0.15
2023-04-03T03:31:13.280Z,0.08
2023-04-03T03:33:39.785Z,-0.02
2023-04-03T03:36:06.806Z,-0.03
2023-04-03T03:38:33.282Z,0.01
2023-04-03T03:41:01.150Z,-0.03
2023-04-03T03:43:28.643Z,-0.07
2023-04-03T03:45:55.820Z,-0.11
2023-04-03T03:48:22.987Z,-0.15
2023-04-03T03:50:50.514Z,-0.22
2023-04-03T03:53:16.997Z,-0.23
2023-04-03T03:55:43.932Z,-0.22
2023-04-03T03:58:10.890Z,-0.24
2023-04-03T04:00:37.348Z,-0.26
2023-04-03T04:03:04.189Z,-0.25
2023-04-03T04:05:31.434Z,-0.31
2023-04-03T04:07:58.057Z,-0.30
2023-04-03T04:10:24.894Z,-0.32
2023-04-03T04:12:52.307Z,-0.22
2023-04-03T04:15:19.596Z,-0.27
2023-04-03T04:17:46.199Z,-0.31
2023-04-03T04:20:12.789Z,-0.34
2023-04-03T04:22:39.931Z,-0.26
2023-04-03T04:25:06.802Z,-0.24
2023-04-03T04:27:33.189Z,-0.14
2023-04-03T04:29:59.836Z,0.09
2023-04-03T04:32:26.341Z,0.01
2023-04-03T04:34:54.279Z,0.15
2023-04-03T04:37:20.804Z,0.12
2023-04-03T04:39:47.256Z,0.23
2023-04-03T04:42:15.112Z,0.15
2023-04-03T04:44:43.288Z,0.16
2023-04-03T04:47:09.992Z,0.13
2023-04-03T04:49:36.812Z,0.12
2023-04-03T04:52:03.723Z,0.14
2023-04-03T04:54:30.252Z,0.05
2023-04-03T04:56:56.778Z,0.07
2023-04-03T04:59:23.538Z,0.14
2023-04-03T05:01:50.644Z,0.09
2023-04-03T05:04:18.077Z,0.03
2023-04-03T05:06:44.514Z,0.02
2023-04-03T05:09:11.261Z,-0.03
2023-04-03T05:11:38.173Z,-0.11
2023-04-03T05:14:07.319Z,-0.06
2023-04-03T05:16:34.233Z,-0.09
2023-04-03T05:19:00.753Z,-0.02
2023-04-03T05:21:29.124Z,0.00
2023-04-03T05:23:55.531Z,0.00
2023-04-03T05:26:22.658Z,-0.03
2023-04-03T05:28:49.442Z,-0.03
2023-04-03T05:31:16.042Z,0.03
2023-04-03T05:33:43.197Z,-0.01
2023-04-03T05:36:10.182Z,-0.05
2023-04-03T05:38:37.024Z,-0.05
2023-04-03T05:41:03.540Z,-0.02
2023-04-03T05:43:30.292Z,0.14
2023-04-03T05:45:56.766Z,0.11
2023-04-03T05:48:23.786Z,0.09
2023-04-03T05:50:50.641Z,0.12
2023-04-03T05:53:22.027Z,0.12
2023-04-03T05:55:48.938Z,0.23
2023-04-03T05:58:15.388Z,0.22
2023-04-03T06:00:42.247Z,0.27
2023-04-03T06:03:08.830Z,0.36
2023-04-03T06:05:36.275Z,0.44
2023-04-03T06:08:04.021Z,0.53
2023-04-03T06:10:30.777Z,0.68
2023-04-03T06:12:57.242Z,0.73
2023-04-03T06:15:25.083Z,0.84
2023-04-03T06:17:51.951Z,0.97
2023-04-03T06:20:18.462Z,1.01
2023-04-03T06:22:45.311Z,1.02
2023-04-03T06:25:12.535Z,1.09
2023-04-03T06:27:39.482Z,1.15
2023-04-03T06:30:08.426Z,1.21
2023-04-03T06:32:34.887Z,1.27
2023-04-03T06:35:01.787Z,1.34
2023-04-03T06:37:29.791Z,1.37
2023-04-03T06:39:56.950Z,1.42
2023-04-03T06:42:24.132Z,1.62
2023-04-03T06:44:50.743Z,1.69
2023-04-03T06:47:17.909Z,1.71
2023-04-03T06:49:45.029Z,1.72
2023-04-03T06:52:13.026Z,1.81
2023-04-03T06:54:40.242Z,1.87
2023-04-03T06:57:06.886Z,1.91
2023-04-03T06:59:33.727Z,1.93
2023-04-03T07:02:01.078Z,2.00
2023-04-03T07:04:27.558Z,2.09
2023-04-03T07:06:54.371Z,2.06
2023-04-03T07:09:20.977Z,2.13
2023-04-03T07:11:47.519Z,2.14
2023-04-03T07:14:13.970Z,2.20
2023-04-03T07:16:41.857Z,2.25
2023-04-03T07:19:10.300Z,2.30
2023-04-03T07:21:36.997Z,2.20
2023-04-03T07:24:03.816Z,2.23
2023-04-03T07:26:30.267Z,2.23
2023-04-03T07:28:57.132Z,2.23
2023-04-03T07:31:24.026Z,2.36
2023-04-03T07:33:51.115Z,2.42
2023-04-03T07:36:20.370Z,2.39
2023-04-03T07:38:47.321Z,2.43
2023-04-03T07:41:19.066Z,2.52
2023-04-03T07:43:46.741Z,2.56
2023-04-03T07:46:13.684Z,2.64
2023-04-03T07:48:40.248Z,2.82
2023-04-03T07:51:07.002Z,2.73
2023-04-03T07:53:34.191Z,2.90
2023-04-03T07:56:01.524Z,3.02
2023-04-03T07:58:28.232Z,2.96
2023-04-03T08:00:54.738Z,3.03
2023-04-03T08:03:22.551Z,3.10
2023-04-03T08:05:50.353Z,3.05
2023-04-03T08:08:21.343Z,3.15
2023-04-03T08:10:52.640Z,3.30
2023-04-03T08:13:21.416Z,3.29
2023-04-03T08:15:48.703Z,3.33
2023-04-03T08:18:16.159Z,3.44
2023-04-03T08:20:44.206Z,3.37
2023-04-03T08:23:11.209Z,3.42
2023-04-03T08:25:42.494Z,3.45
2023-04-03T08:28:10.596Z,3.51
2023-04-03T08:30:43.674Z,3.63
2023-04-03T08:33:11.228Z,3.47
2023-04-03T08:35:42.401Z,3.51
2023-04-03T08:38:10.968Z,3.42
2023-04-03T08:40:37.686Z,3.42
2023-04-03T08:43:23.283Z,3.64
2023-04-03T08:45:57.084Z,3.79
2023-04-03T08:48:27.860Z,3.96
2023-04-03T08:50:58.861Z,3.97
2023-04-03T08:53:33.703Z,4.02
2023-04-03T08:56:11.596Z,4.13
2023-04-03T08:58:50.135Z,4.21
2023-04-03T09:01:25.986Z,4.24
2023-04-03T09:03:52.594Z,4.32
2023-04-03T09:06:26.840Z,4.27
2023-04-03T09:09:16.947Z,4.45
2023-04-03T09:12:01.518Z,4.47
2023-04-03T09:14:33.689Z,4.54
2023-04-03T09:17:04.201Z,4.60
2023-04-03T09:19:33.737Z,4.62
2023-04-03T09:22:28.537Z,4.70
2023-04-03T09:25:05.415Z,4.53
2023-04-03T09:27:32.286Z,4.64
2023-04-03T09:29:59.019Z,4.75
2023-04-03T09:32:34.164Z,4.77
2023-04-03T09:35:19.138Z,4.93
2023-04-03T09:37:52.460Z,5.06
2023-04-03T09:40:28.603Z,5.22
2023-04-03T09:43:01.712Z,4.80
2023-04-03T09:45:34.728Z,4.82
2023-04-03T09:48:16.346Z,5.07
2023-04-03T09:51:00.065Z,5.30
2023-04-03T09:53:29.521Z,5.36
2023-04-03T09:55:56.825Z,5.28
2023-04-03T09:58:50.925Z,5.35
2023-04-03T10:01:24.964Z,5.66
2023-04-03T10:04:11.818Z,5.80
2023-04-03T10:06:51.029Z,5.86
2023-04-03T10:09:31.139Z,5.81
2023-04-03T10:12:07.705Z,5.91
2023-04-03T10:14:36.545Z,5.96
2023-04-03T10:17:21.808Z,5.91
2023-04-03T10:20:08.627Z,5.80
2023-04-03T10:22:58.185Z,5.71
2023-04-03T10:25:48.546Z,5.68
2023-04-03T10:28:30.269Z,5.71
2023-04-03T10:31:07.647Z,5.75
2023-04-03T10:33:45.613Z,6.03
2023-04-03T10:36:27.423Z,5.89
2023-04-03T10:39:04.580Z,6.19
2023-04-03T10:42:16.693Z,6.05
2023-04-03T10:45:02.520Z,5.84
2023-04-03T10:47:44.676Z,6.15
2023-04-03T10:50:40.674Z,6.13
2023-04-03T10:53:19.399Z,6.15
2023-04-03T10:55:46.284Z,6.29
2023-04-03T10:58:38.239Z,6.38
2023-04-03T11:01:14.339Z,6.49
2023-04-03T11:03:45.680Z,6.31
2023-04-03T11:06:15.851Z,6.26
2023-04-03T11:08:52.806Z,6.35
2023-04-03T11:11:28.726Z,6.77
2023-04-03T11:14:19.154Z,7.14
2023-04-03T11:16:54.783Z,7.00
2023-04-03T11:19:36.254Z,6.98
2023-04-03T11:22:14.790Z,6.49
2023-04-03T11:24:44.393Z,6.79
2023-04-03T11:27:24.215Z,7.00
2023-04-03T11:29:53.308Z,7.13
2023-04-03T11:33:02.812Z,6.79
2023-04-03T11:35:30.333Z,6.97
2023-04-03T11:37:58.424Z,7.20
2023-04-03T11:40:35.527Z,7.54
2023-04-03T11:43:18.894Z,7.49
2023-04-03T11:45:55.648Z,7.40
2023-04-03T11:48:29.074Z,7.45
2023-04-03T11:50:57.201Z,7.37
2023-04-03T11:53:41.726Z,6.98
2023-04-03T11:56:29.145Z,6.93
2023-04-03T11:59:14.515Z,7.03
2023-04-03T12:01:53.613Z,7.07
2023-04-03T12:04:26.304Z,6.99
2023-04-03T12:07:00.928Z,7.39
2023-04-03T12:09:41.154Z,7.56
2023-04-03T12:12:29.155Z,7.38
2023-04-03T12:14:55.768Z,7.31
2023-04-03T12:17:30.307Z,7.41
2023-04-03T12:19:56.765Z,7.37
2023-04-03T12:22:24.802Z,7.46
2023-04-03T12:24:53.449Z,7.38
2023-04-03T12:27:35.314Z,7.52
2023-04-03T12:30:05.028Z,7.63
2023-04-03T12:32:40.647Z,7.56
2023-04-03T12:35:21.575Z,7.49
2023-04-03T12:38:15.652Z,7.63
2023-04-03T12:41:13.038Z,7.74
2023-04-03T12:43:51.439Z,7.70
2023-04-03T12:46:23.658Z,7.56
2023-04-03T12:48:54.626Z,7.96
2023-04-03T12:51:30.199Z,8.08
2023-04-03T12:54:03.431Z,7.94
2023-04-03T12:56:33.763Z,7.84
2023-04-03T12:59:23.710Z,7.77
2023-04-03T13:01:57.559Z,7.74
2023-04-03T13:04:24.562Z,7.85
2023-04-03T13:06:52.463Z,8.07
2023-04-03T13:09:28.930Z,8.03
2023-04-03T13:12:12.659Z,7.93
2023-04-03T13:14:39.088Z,8.11
2023-04-03T13:17:15.801Z,8.38
2023-04-03T13:19:43.255Z,8.22
2023-04-03T13:22:40.370Z,7.78
2023-04-03T13:25:13.797Z,7.85
2023-04-03T13:27:43.743Z,8.03
2023-04-03T13:30:29.454Z,8.15
2023-04-03T13:32:59.905Z,8.44
2023-04-03T13:35:40.478Z,8.20
2023-04-03T13:38:19.156Z,8.01
2023-04-03T13:41:07.012Z,7.90
2023-04-03T13:43:36.188Z,8.04
2023-04-03T13:46:12.133Z,7.94
2023-04-03T13:48:45.824Z,8.23
2023-04-03T13:51:18.385Z,8.06
2023-04-03T13:53:49.150Z,8.09
2023-04-03T13:56:38.177Z,8.33
2023-04-03T13:59:24.988Z,8.33
2023-04-03T14:01:56.040Z,8.55
2023-04-03T14:04:26.986Z,8.75
2023-04-03T14:06:53.737Z,8.80
2023-04-03T14:09:23.189Z,8.77
2023-04-03T14:11:53.322Z,8.37
2023-04-03T14:14:23.572Z,8.40
2023-04-03T14:16:56.780Z,8.41
2023-04-03T14:19:31.368Z,8.57
2023-04-03T14:22:00.805Z,8.44
2023-04-03T14:24:28.349Z,8.57
2023-04-03T14:26:56.034Z,8.52
2023-04-03T14:29:23.603Z,8.55
2023-04-03T14:31:55.585Z,8.49
2023-04-03T14:34:30.780Z,8.47
2023-04-03T14:36:57.342Z,8.70
2023-04-03T14:39:23.998Z,8.71
2023-04-03T14:41:50.578Z,8.82
2023-04-03T14:44:17.465Z,8.68
2023-04-03T14:46:56.173Z,8.55
2023-04-03T14:49:30.376Z,8.63
2023-04-03T14:52:01.382Z,8.62
2023-04-03T14:54:28.938Z,8.45
2023-04-03T14:56:58.174Z,8.62
2023-04-03T14:59:25.899Z,8.61
2023-04-03T15:01:52.892Z,8.56
2023-04-03T15:04:21.888Z,8.59
2023-04-03T15:06:49.594Z,8.81
2023-04-03T15:09:20.457Z,9.03
2023-04-03T15:11:47.804Z,8.74
2023-04-03T15:14:16.714Z,8.82
2023-04-03T15:16:51.106Z,8.88
2023-04-03T15:19:17.565Z,8.87
2023-04-03T15:21:44.109Z,8.91
2023-04-03T15:24:11.288Z,8.92
2023-04-03T15:26:38.351Z,8.98
2023-04-03T15:29:05.739Z,8.64
2023-04-03T15:31:33.439Z,8.59
2023-04-03T15:34:00.165Z,8.55
2023-04-03T15:36:34.192Z,8.75
2023-04-03T15:39:01.487Z,8.87
2023-04-03T15:41:28.575Z,8.57
2023-04-03T15:43:55.794Z,8.42
2023-04-03T15:46:23.656Z,8.27
2023-04-03T15:48:50.559Z,8.42
2023-04-03T15:51:17.222Z,8.43
2023-04-03T15:53:44.186Z,8.33
2023-04-03T15:56:11.113Z,8.31
2023-04-03T15:58:37.651Z,8.38
2023-04-03T16:01:04.859Z,8.52
2023-04-03T16:03:31.837Z,8.56
2023-04-03T16:05:58.683Z,8.44
2023-04-03T16:08:25.935Z,8.38
2023-04-03T16:10:52.327Z,8.37
2023-04-03T16:13:19.849Z,8.31
2023-04-03T16:15:46.473Z,8.21
2023-04-03T16:18:15.061Z,8.30
2023-04-03T16:20:41.710Z,8.22
2023-04-03T16:23:10.330Z,8.39
2023-04-03T16:25:36.725Z,8.14
2023-04-03T16:28:03.546Z,8.10
2023-04-03T16:30:30.705Z,7.97
2023-04-03T16:32:58.050Z,7.86
2023-04-03T16:35:24.875Z,8.02
2023-04-03T16:37:51.607Z,8.03
2023-04-03T16:40:18.498Z,8.20
2023-04-03T16:42:45.040Z,8.04
2023-04-03T16:45:11.560Z,8.07
2023-04-03T16:47:38.758Z,8.05
2023-04-03T16:50:05.966Z,7.82
2023-04-03T16:52:32.747Z,7.81
2023-04-03T16:54:59.788Z,7.81
2023-04-03T16:57:26.971Z,7.75
2023-04-03T16:59:54.004Z,7.69
2023-04-03T17:02:27.126Z,7.46
2023-04-03T17:04:54.346Z,7.44
2023-04-03T17:07:24.519Z,7.36
2023-04-03T17:09:52.668Z,7.39
2023-04-03T17:12:19.200Z,7.27
2023-04-03T17:14:47.637Z,7.08
2023-04-03T17:17:15.485Z,7.06
2023-04-03T17:19:43.756Z,6.96
2023-04-03T17:22:10.587Z,6.84
2023-04-03T17:24:37.198Z,6.74
2023-04-03T17:27:04.018Z,6.64
2023-04-03T17:29:31.731Z,6.54
2023-04-03T17:31:58.442Z,6.52
2023-04-03T17:34:25.730Z,6.35
2023-04-03T17:36:52.180Z,6.33
2023-04-03T17:39:18.751Z,6.16
2023-04-03T17:41:46.323Z,6.13
2023-04-03T17:44:13.064Z,6.15
2023-04-03T17:46:39.984Z,6.05
2023-04-03T17:49:06.774Z,5.97
2023-04-03T17:51:36.515Z,5.83
2023-04-03T17:54:03.226Z,5.75
2023-04-03T17:56:29.670Z,5.78
2023-04-03T17:58:58.819Z,5.64
2023-04-03T18:01:28.840Z,5.64
2023-04-03T18:03:58.024Z,5.50
2023-04-03T18:06:29.120Z,5.39
2023-04-03T18:09:07.601Z,5.32
2023-04-03T18:11:34.853Z,5.22
2023-04-03T18:14:03.197Z,5.12
2023-04-03T18:16:30.059Z,5.08
2023-04-03T18:19:06.957Z,4.96
2023-04-03T18:21:45.625Z,4.86
2023-04-03T18:24:14.501Z,4.75
2023-04-03T18:26:44.585Z,4.61
2023-04-03T18:29:11.863Z,4.52
2023-04-03T18:31:44.077Z,4.39
2023-04-03T18:34:10.618Z,4.17
2023-04-03T18:36:38.582Z,4.01
2023-04-03T18:39:05.019Z,3.92
2023-04-03T18:41:35.687Z,3.97
2023-04-03T18:44:05.269Z,4.07
2023-04-03T18:46:32.951Z,4.01
2023-04-03T18:48:59.669Z,3.88
2023-04-03T18:51:26.633Z,3.70
2023-04-03T18:53:53.218Z,3.60
2023-04-03T18:56:19.656Z,3.51
2023-04-03T18:58:48.551Z,3.55
2023-04-03T19:01:15.917Z,3.49
2023-04-03T19:03:42.764Z,3.41
2023-04-03T19:06:09.766Z,3.35
2023-04-03T19:08:36.784Z,3.34
2023-04-03T19:11:04.781Z,3.34
2023-04-03T19:13:32.449Z,3.47
2023-04-03T19:15:59.897Z,3.40
2023-04-03T19:18:26.991Z,3.30
2023-04-03T19:20:55.796Z,3.25
2023-04-03T19:23:23.929Z,3.18
2023-04-03T19:26:02.221Z,3.21
2023-04-03T19:28:28.815Z,3.08
2023-04-03T19:30:58.028Z,3.02
2023-04-03T19:33:25.379Z,2.89
2023-04-03T19:35:52.501Z,2.85
2023-04-03T19:38:19.134Z,2.86
2023-04-03T19:40:46.121Z,2.93
2023-04-03T19:43:15.312Z,2.86
2023-04-03T19:45:42.110Z,2.90
2023-04-03T19:48:09.367Z,2.71
2023-04-03T19:50:36.311Z,2.62
2023-04-03T19:53:03.008Z,2.58
2023-04-03T19:55:32.376Z,2.58
2023-04-03T19:58:00.348Z,2.55
2023-04-03T20:00:28.709Z,2.53
2023-04-03T20:02:55.676Z,2.54
2023-04-03T20:05:22.705Z,2.44
2023-04-03T20:07:49.484Z,2.45
2023-04-03T20:10:16.835Z,2.59
2023-04-03T20:12:43.985Z,2.44
2023-04-03T20:15:11.307Z,2.33
2023-04-03T20:17:38.885Z,2.23
2023-04-03T20:20:06.111Z,2.13
2023-04-03T20:22:33.558Z,2.00
2023-04-03T20:25:06.410Z,1.92
2023-04-03T20:27:34.844Z,1.79
2023-04-03T20:30:03.919Z,1.71
2023-04-03T20:32:31.590Z,1.59
2023-04-03T20:35:04.257Z,1.52
2023-04-03T20:37:31.742Z,1.43
2023-04-03T20:39:58.181Z,1.40
2023-04-03T20:42:24.734Z,1.32
2023-04-03T20:44:51.164Z,1.24
2023-04-03T20:47:17.985Z,1.23
2023-04-03T20:49:45.020Z,1.17
2023-04-03T20:52:11.769Z,1.19
2023-04-03T20:54:38.491Z,1.15
2023-04-03T20:57:05.654Z,1.10
2023-04-03T20:59:33.936Z,1.09
2023-04-03T21:02:00.884Z,1.03
2023-04-03T21:04:39.754Z,0.94
2023-04-03T21:07:44.352Z,0.85
2023-04-03T21:10:48.353Z,0.79
2023-04-03T21:13:52.484Z,0.75
2023-04-03T21:16:20.269Z,0.70
2023-04-03T21:18:56.223Z,0.67
2023-04-03T21:21:26.452Z,0.62
2023-04-03T21:23:54.940Z,0.58
2023-04-03T21:26:22.925Z,0.54
2023-04-03T21:28:52.513Z,0.51
2023-04-03T21:31:21.512Z,0.46
2023-04-03T21:33:47.926Z,0.42
2023-04-03T21:36:15.425Z,0.33
2023-04-03T21:38:42.122Z,0.25
2023-04-03T21:41:08.917Z,0.22
2023-04-03T21:43:35.303Z,0.18
2023-04-03T21:46:02.286Z,0.08
2023-04-03T21:48:30.468Z,0.01
2023-04-03T21:51:05.179Z,-0.02
2023-04-03T21:53:33.925Z,-0.06
2023-04-03T21:56:02.206Z,-0.12
2023-04-03T21:58:33.083Z,-0.16
2023-04-03T22:01:16.435Z,-0.15
2023-04-03T22:03:44.431Z,-0.22
2023-04-03T22:06:12.448Z,-0.27
2023-04-03T22:08:39.730Z,-0.30
2023-04-03T22:11:09.405Z,-0.35
2023-04-03T22:13:37.336Z,-0.46
2023-04-03T22:16:04.080Z,-0.51
2023-04-03T22:18:30.593Z,-0.53
2023-04-03T22:20:57.564Z,-0.54
2023-04-03T22:23:25.599Z,-0.59
2023-04-03T22:26:07.397Z,-0.67
2023-04-03T22:28:37.099Z,-0.71
2023-04-03T22:31:07.386Z,-0.74
2023-04-03T22:33:36.533Z,-0.76
2023-04-03T22:36:07.064Z,-0.74
2023-04-03T22:38:34.966Z,-0.78
2023-04-03T22:41:03.622Z,-0.80
2023-04-03T22:43:32.609Z,-0.83
2023-04-03T22:46:03.822Z,-0.92
2023-04-03T22:48:33.474Z,-1.02
2023-04-03T22:51:01.075Z,-1.02
2023-04-03T22:53:28.299Z,-1.01
2023-04-03T22:55:58.474Z,-1.04
2023-04-03T22:58:26.438Z,-1.05
2023-04-03T23:01:07.814Z,-1.03
2023-04-03T23:03:36.247Z,-1.10
2023-04-03T23:06:04.166Z,-1.18
2023-04-03T23:08:32.512Z,-1.21
2023-04-03T23:11:00.368Z,-1.24
2023-04-03T23:13:28.179Z,-1.34
2023-04-03T23:15:59.678Z,-1.37
2023-04-03T23:18:29.328Z,-1.40
2023-04-03T23:20:57.279Z,-1.41
2023-04-03T23:23:25.131Z,-1.47
2023-04-03T23:25:57.285Z,-1.45
2023-04-03T23:28:24.245Z,-1.44
2023-04-03T23:31:00.709Z,-1.42
2023-04-03T23:33:32.117Z,-1.47
2023-04-03T23:36:00.252Z,-1.56
2023-04-03T23:38:26.887Z,-1.58
2023-04-03T23:40:55.850Z,-1.65
2023-04-03T23:43:22.580Z,-1.64
2023-04-03T23:45:49.201Z,-1.66
2023-04-03T23:48:16.227Z,-1.68
2023-04-03T23:50:45.596Z,-1.71
2023-04-03T23:53:15.136Z,-1.72
2023-04-03T23:55:41.991Z,-1.72
2023-04-03T23:58:08.909Z,-1.68
